sensor_id;sensor_type;location;lat;lon;timestamp;P1;durP1;ratioP1;P2;durP2;ratioP2
13079;SDS011;6606;49.154;9.280;2022-08-23T00:01:38;4.23;;;2.60;;
13079;SDS011;6606;49.154;9.280;2022-08-23T00:04:09;5.20;;;2.80;;
13079;SDS011;6606;49.154;9.280;2022-08-23T00:06:39;5.53;;;2.60;;
13079;SDS011;6606;49.154;9.280;2022-08-23T00:09:06;6.23;;;2.77;;
13079;SDS011;6606;49.154;9.280;2022-08-23T00:11:36;3.27;;;2.27;;
13079;SDS011;6606;49.154;9.280;2022-08-23T00:14:07;3.37;;;2.53;;
13079;SDS011;6606;49.154;9.280;2022-08-23T00:16:36;3.07;;;2.20;;
13079;SDS011;6606;49.154;9.280;2022-08-23T00:19:04;4.13;;;2.20;;
13079;SDS011;6606;49.154;9.280;2022-08-23T00:21:32;3.15;;;2.20;;
13079;SDS011;6606;49.154;9.280;2022-08-23T00:23:59;4.53;;;2.60;;
13079;SDS011;6606;49.154;9.280;2022-08-23T00:26:26;2.77;;;2.20;;
13079;SDS011;6606;49.154;9.280;2022-08-23T00:28:55;2.53;;;2.10;;
13079;SDS011;6606;49.154;9.280;2022-08-23T00:31:22;2.40;;;2.20;;
13079;SDS011;6606;49.154;9.280;2022-08-23T00:33:49;4.37;;;2.50;;
13079;SDS011;6606;49.154;9.280;2022-08-23T00:36:16;4.40;;;2.60;;
13079;SDS011;6606;49.154;9.280;2022-08-23T00:38:42;2.97;;;2.30;;
13079;SDS011;6606;49.154;9.280;2022-08-23T00:41:09;2.60;;;2.10;;
13079;SDS011;6606;49.154;9.280;2022-08-23T00:43:36;6.50;;;2.90;;
13079;SDS011;6606;49.154;9.280;2022-08-23T00:46:37;5.83;;;2.70;;
13079;SDS011;6606;49.154;9.280;2022-08-23T00:49:26;2.90;;;2.23;;
13079;SDS011;6606;49.154;9.280;2022-08-23T00:51:56;3.80;;;2.57;;
13079;SDS011;6606;49.154;9.280;2022-08-23T00:54:26;4.03;;;2.73;;
13079;SDS011;6606;49.154;9.280;2022-08-23T00:56:56;3.57;;;2.67;;
13079;SDS011;6606;49.154;9.280;2022-08-23T00:59:26;5.13;;;2.60;;
13079;SDS011;6606;49.154;9.280;2022-08-23T01:01:55;3.77;;;2.43;;
13079;SDS011;6606;49.154;9.280;2022-08-23T01:04:22;2.83;;;2.30;;
13079;SDS011;6606;49.154;9.280;2022-08-23T01:06:53;2.73;;;2.43;;
13079;SDS011;6606;49.154;9.280;2022-08-23T01:09:23;4.17;;;2.30;;
13079;SDS011;6606;49.154;9.280;2022-08-23T01:11:52;2.20;;;1.93;;
13079;SDS011;6606;49.154;9.280;2022-08-23T01:14:25;3.53;;;2.33;;
13079;SDS011;6606;49.154;9.280;2022-08-23T01:16:59;3.93;;;2.00;;
13079;SDS011;6606;49.154;9.280;2022-08-23T01:19:32;2.43;;;2.10;;
13079;SDS011;6606;49.154;9.280;2022-08-23T01:22:02;3.57;;;2.30;;
13079;SDS011;6606;49.154;9.280;2022-08-23T01:24:35;3.27;;;2.30;;
13079;SDS011;6606;49.154;9.280;2022-08-23T01:27:03;2.40;;;2.03;;
13079;SDS011;6606;49.154;9.280;2022-08-23T01:29:31;2.77;;;1.97;;
13079;SDS011;6606;49.154;9.280;2022-08-23T01:31:58;5.03;;;2.67;;
13079;SDS011;6606;49.154;9.280;2022-08-23T01:34:25;4.77;;;2.20;;
13079;SDS011;6606;49.154;9.280;2022-08-23T01:36:53;2.93;;;2.33;;
13079;SDS011;6606;49.154;9.280;2022-08-23T01:39:21;2.90;;;2.00;;
13079;SDS011;6606;49.154;9.280;2022-08-23T01:41:50;2.40;;;2.00;;
13079;SDS011;6606;49.154;9.280;2022-08-23T01:44:17;3.00;;;2.10;;
13079;SDS011;6606;49.154;9.280;2022-08-23T01:46:44;2.57;;;2.10;;
13079;SDS011;6606;49.154;9.280;2022-08-23T01:49:12;2.90;;;2.10;;
13079;SDS011;6606;49.154;9.280;2022-08-23T01:51:39;2.90;;;2.20;;
13079;SDS011;6606;49.154;9.280;2022-08-23T01:54:07;3.27;;;2.23;;
13079;SDS011;6606;49.154;9.280;2022-08-23T01:56:34;4.60;;;2.43;;
13079;SDS011;6606;49.154;9.280;2022-08-23T01:59:03;2.47;;;2.27;;
13079;SDS011;6606;49.154;9.280;2022-08-23T02:01:37;3.57;;;2.60;;
13079;SDS011;6606;49.154;9.280;2022-08-23T02:04:04;2.73;;;2.17;;
13079;SDS011;6606;49.154;9.280;2022-08-23T02:06:31;4.30;;;2.60;;
13079;SDS011;6606;49.154;9.280;2022-08-23T02:09:00;3.97;;;2.30;;
13079;SDS011;6606;49.154;9.280;2022-08-23T02:11:28;2.77;;;2.20;;
13079;SDS011;6606;49.154;9.280;2022-08-23T02:13:57;3.17;;;2.43;;
13079;SDS011;6606;49.154;9.280;2022-08-23T02:16:34;2.37;;;2.00;;
13079;SDS011;6606;49.154;9.280;2022-08-23T02:19:04;2.40;;;2.20;;
13079;SDS011;6606;49.154;9.280;2022-08-23T02:21:32;3.80;;;2.10;;
13079;SDS011;6606;49.154;9.280;2022-08-23T02:24:03;3.80;;;2.60;;
13079;SDS011;6606;49.154;9.280;2022-08-23T02:26:33;3.07;;;2.50;;
13079;SDS011;6606;49.154;9.280;2022-08-23T02:29:01;2.80;;;2.30;;
13079;SDS011;6606;49.154;9.280;2022-08-23T02:31:29;3.20;;;2.17;;
13079;SDS011;6606;49.154;9.280;2022-08-23T02:33:58;3.70;;;2.47;;
13079;SDS011;6606;49.154;9.280;2022-08-23T02:36:28;2.90;;;2.30;;
13079;SDS011;6606;49.154;9.280;2022-08-23T02:38:55;3.17;;;2.30;;
13079;SDS011;6606;49.154;9.280;2022-08-23T02:41:22;4.87;;;2.40;;
13079;SDS011;6606;49.154;9.280;2022-08-23T02:43:50;3.03;;;2.23;;
13079;SDS011;6606;49.154;9.280;2022-08-23T02:46:18;2.63;;;2.40;;
13079;SDS011;6606;49.154;9.280;2022-08-23T02:48:45;3.63;;;2.33;;
13079;SDS011;6606;49.154;9.280;2022-08-23T02:51:15;4.00;;;2.90;;
13079;SDS011;6606;49.154;9.280;2022-08-23T02:53:43;3.30;;;2.40;;
13079;SDS011;6606;49.154;9.280;2022-08-23T02:56:10;5.17;;;2.57;;
13079;SDS011;6606;49.154;9.280;2022-08-23T02:58:39;3.80;;;2.70;;
13079;SDS011;6606;49.154;9.280;2022-08-23T03:01:13;4.37;;;3.00;;
13079;SDS011;6606;49.154;9.280;2022-08-23T03:03:40;4.20;;;2.70;;
13079;SDS011;6606;49.154;9.280;2022-08-23T03:06:07;4.60;;;2.60;;
13079;SDS011;6606;49.154;9.280;2022-08-23T03:08:35;4.37;;;2.87;;
13079;SDS011;6606;49.154;9.280;2022-08-23T03:11:08;3.90;;;2.70;;
13079;SDS011;6606;49.154;9.280;2022-08-23T03:13:36;3.63;;;2.87;;
13079;SDS011;6606;49.154;9.280;2022-08-23T03:16:04;4.67;;;2.90;;
13079;SDS011;6606;49.154;9.280;2022-08-23T03:18:32;3.63;;;3.03;;
13079;SDS011;6606;49.154;9.280;2022-08-23T03:21:00;3.53;;;2.70;;
13079;SDS011;6606;49.154;9.280;2022-08-23T03:23:27;3.33;;;2.80;;
13079;SDS011;6606;49.154;9.280;2022-08-23T03:25:56;4.07;;;2.37;;
13079;SDS011;6606;49.154;9.280;2022-08-23T03:28:27;3.53;;;2.77;;
13079;SDS011;6606;49.154;9.280;2022-08-23T03:30:55;4.47;;;2.90;;
13079;SDS011;6606;49.154;9.280;2022-08-23T03:33:22;3.47;;;2.80;;
13079;SDS011;6606;49.154;9.280;2022-08-23T03:35:49;3.07;;;2.80;;
13079;SDS011;6606;49.154;9.280;2022-08-23T03:38:16;4.47;;;2.80;;
13079;SDS011;6606;49.154;9.280;2022-08-23T03:40:44;3.20;;;2.80;;
13079;SDS011;6606;49.154;9.280;2022-08-23T03:43:12;3.57;;;2.50;;
13079;SDS011;6606;49.154;9.280;2022-08-23T03:45:39;4.97;;;2.70;;
13079;SDS011;6606;49.154;9.280;2022-08-23T03:48:08;4.03;;;2.87;;
13079;SDS011;6606;49.154;9.280;2022-08-23T03:50:35;4.23;;;2.90;;
13079;SDS011;6606;49.154;9.280;2022-08-23T03:53:02;4.13;;;2.73;;
13079;SDS011;6606;49.154;9.280;2022-08-23T03:55:29;3.53;;;2.87;;
13079;SDS011;6606;49.154;9.280;2022-08-23T03:57:56;5.80;;;2.97;;
13079;SDS011;6606;49.154;9.280;2022-08-23T04:00:25;3.17;;;2.87;;
13079;SDS011;6606;49.154;9.280;2022-08-23T04:02:53;3.53;;;2.97;;
13079;SDS011;6606;49.154;9.280;2022-08-23T04:05:21;3.63;;;2.60;;
13079;SDS011;6606;49.154;9.280;2022-08-23T04:08:05;2.90;;;2.60;;
13079;SDS011;6606;49.154;9.280;2022-08-23T04:10:33;2.60;;;2.40;;
13079;SDS011;6606;49.154;9.280;2022-08-23T04:13:00;3.50;;;2.70;;
13079;SDS011;6606;49.154;9.280;2022-08-23T04:15:29;2.70;;;2.50;;
13079;SDS011;6606;49.154;9.280;2022-08-23T04:17:57;3.53;;;3.00;;
13079;SDS011;6606;49.154;9.280;2022-08-23T04:20:24;3.83;;;2.83;;
13079;SDS011;6606;49.154;9.280;2022-08-23T04:22:56;4.37;;;2.93;;
13079;SDS011;6606;49.154;9.280;2022-08-23T04:25:25;4.50;;;2.70;;
13079;SDS011;6606;49.154;9.280;2022-08-23T04:27:52;5.37;;;2.73;;
13079;SDS011;6606;49.154;9.280;2022-08-23T04:30:20;5.43;;;2.93;;
13079;SDS011;6606;49.154;9.280;2022-08-23T04:32:48;5.80;;;3.40;;
13079;SDS011;6606;49.154;9.280;2022-08-23T04:35:15;4.60;;;3.13;;
13079;SDS011;6606;49.154;9.280;2022-08-23T04:37:42;3.73;;;2.97;;
13079;SDS011;6606;49.154;9.280;2022-08-23T04:40:10;3.87;;;2.90;;
13079;SDS011;6606;49.154;9.280;2022-08-23T04:42:55;4.63;;;2.87;;
13079;SDS011;6606;49.154;9.280;2022-08-23T04:45:22;5.93;;;3.23;;
13079;SDS011;6606;49.154;9.280;2022-08-23T04:47:52;5.07;;;3.00;;
13079;SDS011;6606;49.154;9.280;2022-08-23T04:50:20;3.87;;;2.90;;
13079;SDS011;6606;49.154;9.280;2022-08-23T04:53:11;4.77;;;2.87;;
13079;SDS011;6606;49.154;9.280;2022-08-23T04:55:55;5.60;;;3.10;;
13079;SDS011;6606;49.154;9.280;2022-08-23T04:58:21;3.17;;;2.57;;
13079;SDS011;6606;49.154;9.280;2022-08-23T05:00:51;2.53;;;2.33;;
13079;SDS011;6606;49.154;9.280;2022-08-23T05:03:24;3.47;;;2.60;;
13079;SDS011;6606;49.154;9.280;2022-08-23T05:05:53;3.67;;;2.70;;
13079;SDS011;6606;49.154;9.280;2022-08-23T05:08:26;4.23;;;3.30;;
13079;SDS011;6606;49.154;9.280;2022-08-23T05:10:53;3.87;;;3.20;;
13079;SDS011;6606;49.154;9.280;2022-08-23T05:13:20;3.63;;;2.37;;
13079;SDS011;6606;49.154;9.280;2022-08-23T05:15:49;3.80;;;2.90;;
13079;SDS011;6606;49.154;9.280;2022-08-23T05:18:17;3.20;;;2.70;;
13079;SDS011;6606;49.154;9.280;2022-08-23T05:20:45;4.37;;;2.90;;
13079;SDS011;6606;49.154;9.280;2022-08-23T05:23:12;4.13;;;2.97;;
13079;SDS011;6606;49.154;9.280;2022-08-23T05:25:51;3.50;;;2.70;;
13079;SDS011;6606;49.154;9.280;2022-08-23T05:28:30;5.50;;;2.90;;
13079;SDS011;6606;49.154;9.280;2022-08-23T05:31:00;3.73;;;2.90;;
13079;SDS011;6606;49.154;9.280;2022-08-23T05:33:34;4.60;;;2.90;;
13079;SDS011;6606;49.154;9.280;2022-08-23T05:36:04;3.43;;;2.80;;
13079;SDS011;6606;49.154;9.280;2022-08-23T05:38:31;3.20;;;2.60;;
13079;SDS011;6606;49.154;9.280;2022-08-23T05:40:59;6.00;;;3.10;;
13079;SDS011;6606;49.154;9.280;2022-08-23T05:43:27;5.70;;;2.90;;
13079;SDS011;6606;49.154;9.280;2022-08-23T05:45:58;4.20;;;2.97;;
13079;SDS011;6606;49.154;9.280;2022-08-23T05:48:26;5.43;;;3.10;;
13079;SDS011;6606;49.154;9.280;2022-08-23T05:50:55;4.27;;;2.70;;
13079;SDS011;6606;49.154;9.280;2022-08-23T05:53:23;3.90;;;2.63;;
13079;SDS011;6606;49.154;9.280;2022-08-23T05:55:51;4.67;;;2.90;;
13079;SDS011;6606;49.154;9.280;2022-08-23T05:58:19;3.73;;;3.03;;
13079;SDS011;6606;49.154;9.280;2022-08-23T06:00:46;3.13;;;2.67;;
13079;SDS011;6606;49.154;9.280;2022-08-23T06:03:13;5.97;;;3.30;;
13079;SDS011;6606;49.154;9.280;2022-08-23T06:05:39;5.03;;;2.70;;
13079;SDS011;6606;49.154;9.280;2022-08-23T06:08:07;5.10;;;2.77;;
13079;SDS011;6606;49.154;9.280;2022-08-23T06:10:36;3.57;;;2.77;;
13079;SDS011;6606;49.154;9.280;2022-08-23T06:13:11;5.80;;;3.13;;
13079;SDS011;6606;49.154;9.280;2022-08-23T06:15:41;5.90;;;2.43;;
13079;SDS011;6606;49.154;9.280;2022-08-23T06:18:08;6.07;;;3.00;;
13079;SDS011;6606;49.154;9.280;2022-08-23T06:20:37;4.73;;;2.97;;
13079;SDS011;6606;49.154;9.280;2022-08-23T06:23:07;4.67;;;2.93;;
13079;SDS011;6606;49.154;9.280;2022-08-23T06:25:36;4.13;;;2.60;;
13079;SDS011;6606;49.154;9.280;2022-08-23T06:28:10;5.60;;;2.87;;
13079;SDS011;6606;49.154;9.280;2022-08-23T06:30:37;3.83;;;2.70;;
13079;SDS011;6606;49.154;9.280;2022-08-23T06:33:23;6.30;;;3.20;;
13079;SDS011;6606;49.154;9.280;2022-08-23T06:36:12;2.97;;;2.30;;
13079;SDS011;6606;49.154;9.280;2022-08-23T06:38:57;6.22;;;3.05;;
13079;SDS011;6606;49.154;9.280;2022-08-23T06:41:45;4.10;;;2.65;;
13079;SDS011;6606;49.154;9.280;2022-08-23T06:44:25;4.85;;;2.92;;
13079;SDS011;6606;49.154;9.280;2022-08-23T06:47:03;4.60;;;2.78;;
13079;SDS011;6606;49.154;9.280;2022-08-23T06:49:32;4.53;;;2.50;;
13079;SDS011;6606;49.154;9.280;2022-08-23T06:52:00;7.20;;;2.47;;
13079;SDS011;6606;49.154;9.280;2022-08-23T06:54:37;7.18;;;2.70;;
13079;SDS011;6606;49.154;9.280;2022-08-23T06:57:31;5.47;;;2.70;;
13079;SDS011;6606;49.154;9.280;2022-08-23T07:00:18;6.68;;;2.58;;
13079;SDS011;6606;49.154;9.280;2022-08-23T07:03:10;4.60;;;2.50;;
13079;SDS011;6606;49.154;9.280;2022-08-23T07:05:59;4.45;;;2.65;;
13079;SDS011;6606;49.154;9.280;2022-08-23T07:08:28;4.97;;;2.70;;
13079;SDS011;6606;49.154;9.280;2022-08-23T07:10:55;6.18;;;2.58;;
13079;SDS011;6606;49.154;9.280;2022-08-23T07:13:23;3.83;;;2.10;;
13079;SDS011;6606;49.154;9.280;2022-08-23T07:15:50;4.30;;;2.30;;
13079;SDS011;6606;49.154;9.280;2022-08-23T07:18:19;4.85;;;2.67;;
13079;SDS011;6606;49.154;9.280;2022-08-23T07:20:47;3.83;;;2.17;;
13079;SDS011;6606;49.154;9.280;2022-08-23T07:23:13;4.55;;;2.17;;
13079;SDS011;6606;49.154;9.280;2022-08-23T07:25:41;3.67;;;1.95;;
13079;SDS011;6606;49.154;9.280;2022-08-23T07:28:11;3.28;;;1.90;;
13079;SDS011;6606;49.154;9.280;2022-08-23T07:30:41;2.90;;;2.00;;
13079;SDS011;6606;49.154;9.280;2022-08-23T07:33:08;2.53;;;1.70;;
13079;SDS011;6606;49.154;9.280;2022-08-23T07:35:54;3.20;;;1.85;;
13079;SDS011;6606;49.154;9.280;2022-08-23T07:38:21;1.90;;;1.55;;
13079;SDS011;6606;49.154;9.280;2022-08-23T07:40:47;2.20;;;1.75;;
13079;SDS011;6606;49.154;9.280;2022-08-23T07:43:14;4.40;;;1.80;;
13079;SDS011;6606;49.154;9.280;2022-08-23T07:45:43;3.92;;;1.90;;
13079;SDS011;6606;49.154;9.280;2022-08-23T07:48:10;2.92;;;1.60;;
13079;SDS011;6606;49.154;9.280;2022-08-23T07:50:52;2.88;;;1.85;;
13079;SDS011;6606;49.154;9.280;2022-08-23T07:53:20;5.72;;;1.77;;
13079;SDS011;6606;49.154;9.280;2022-08-23T07:55:47;2.03;;;1.55;;
13079;SDS011;6606;49.154;9.280;2022-08-23T07:58:30;2.30;;;1.60;;
13079;SDS011;6606;49.154;9.280;2022-08-23T08:01:18;4.78;;;1.67;;
13079;SDS011;6606;49.154;9.280;2022-08-23T08:03:49;2.35;;;1.42;;
13079;SDS011;6606;49.154;9.280;2022-08-23T08:06:31;2.10;;;1.45;;
13079;SDS011;6606;49.154;9.280;2022-08-23T08:08:59;3.55;;;1.70;;
13079;SDS011;6606;49.154;9.280;2022-08-23T08:11:29;1.80;;;1.50;;
13079;SDS011;6606;49.154;9.280;2022-08-23T08:14:00;3.65;;;1.40;;
13079;SDS011;6606;49.154;9.280;2022-08-23T08:16:31;3.45;;;1.85;;
13079;SDS011;6606;49.154;9.280;2022-08-23T08:19:00;2.65;;;1.60;;
13079;SDS011;6606;49.154;9.280;2022-08-23T08:21:47;4.85;;;1.70;;
13079;SDS011;6606;49.154;9.280;2022-08-23T08:24:43;2.33;;;1.60;;
13079;SDS011;6606;49.154;9.280;2022-08-23T08:27:11;2.80;;;1.58;;
13079;SDS011;6606;49.154;9.280;2022-08-23T08:29:38;2.15;;;1.70;;
13079;SDS011;6606;49.154;9.280;2022-08-23T08:32:08;4.68;;;1.88;;
13079;SDS011;6606;49.154;9.280;2022-08-23T08:34:35;3.10;;;1.50;;
13079;SDS011;6606;49.154;9.280;2022-08-23T08:37:03;3.22;;;1.85;;
13079;SDS011;6606;49.154;9.280;2022-08-23T08:39:30;4.63;;;1.80;;
13079;SDS011;6606;49.154;9.280;2022-08-23T08:42:04;3.92;;;1.58;;
13079;SDS011;6606;49.154;9.280;2022-08-23T08:44:46;4.30;;;1.75;;
13079;SDS011;6606;49.154;9.280;2022-08-23T08:47:24;3.50;;;1.70;;
13079;SDS011;6606;49.154;9.280;2022-08-23T08:49:59;3.15;;;1.90;;
13079;SDS011;6606;49.154;9.280;2022-08-23T08:52:34;3.95;;;1.50;;
13079;SDS011;6606;49.154;9.280;2022-08-23T08:55:11;1.95;;;1.42;;
13079;SDS011;6606;49.154;9.280;2022-08-23T08:57:44;5.05;;;1.80;;
13079;SDS011;6606;49.154;9.280;2022-08-23T09:00:15;3.03;;;1.85;;
13079;SDS011;6606;49.154;9.280;2022-08-23T09:02:46;3.85;;;1.60;;
13079;SDS011;6606;49.154;9.280;2022-08-23T09:05:13;2.75;;;1.60;;
13079;SDS011;6606;49.154;9.280;2022-08-23T09:07:46;2.25;;;1.73;;
13079;SDS011;6606;49.154;9.280;2022-08-23T09:10:27;3.55;;;1.58;;
13079;SDS011;6606;49.154;9.280;2022-08-23T09:13:15;2.58;;;1.65;;
13079;SDS011;6606;49.154;9.280;2022-08-23T09:15:55;3.40;;;1.90;;
13079;SDS011;6606;49.154;9.280;2022-08-23T09:18:30;3.22;;;2.00;;
13079;SDS011;6606;49.154;9.280;2022-08-23T09:20:59;3.60;;;1.88;;
13079;SDS011;6606;49.154;9.280;2022-08-23T09:23:30;5.15;;;1.60;;
13079;SDS011;6606;49.154;9.280;2022-08-23T09:26:03;2.15;;;1.85;;
13079;SDS011;6606;49.154;9.280;2022-08-23T09:28:40;2.00;;;1.45;;
13079;SDS011;6606;49.154;9.280;2022-08-23T09:31:11;3.30;;;1.65;;
13079;SDS011;6606;49.154;9.280;2022-08-23T09:33:59;5.68;;;1.83;;
13079;SDS011;6606;49.154;9.280;2022-08-23T09:36:47;3.10;;;1.63;;
13079;SDS011;6606;49.154;9.280;2022-08-23T09:39:25;2.55;;;1.52;;
13079;SDS011;6606;49.154;9.280;2022-08-23T09:41:58;2.25;;;1.58;;
13079;SDS011;6606;49.154;9.280;2022-08-23T09:44:33;3.85;;;1.60;;
13079;SDS011;6606;49.154;9.280;2022-08-23T09:47:06;2.28;;;1.70;;
13079;SDS011;6606;49.154;9.280;2022-08-23T09:49:42;2.85;;;1.75;;
13079;SDS011;6606;49.154;9.280;2022-08-23T09:52:16;4.15;;;1.80;;
13079;SDS011;6606;49.154;9.280;2022-08-23T09:54:53;1.92;;;1.33;;
13079;SDS011;6606;49.154;9.280;2022-08-23T09:57:22;3.08;;;1.80;;
13079;SDS011;6606;49.154;9.280;2022-08-23T09:59:52;3.53;;;1.70;;
13079;SDS011;6606;49.154;9.280;2022-08-23T10:02:26;5.53;;;1.92;;
13079;SDS011;6606;49.154;9.280;2022-08-23T10:05:01;3.60;;;1.70;;
13079;SDS011;6606;49.154;9.280;2022-08-23T10:07:35;3.95;;;1.70;;
13079;SDS011;6606;49.154;9.280;2022-08-23T10:10:14;3.08;;;1.55;;
13079;SDS011;6606;49.154;9.280;2022-08-23T10:12:50;4.13;;;1.55;;
13079;SDS011;6606;49.154;9.280;2022-08-23T10:15:19;3.05;;;1.63;;
13079;SDS011;6606;49.154;9.280;2022-08-23T10:17:50;2.67;;;1.70;;
13079;SDS011;6606;49.154;9.280;2022-08-23T10:20:30;2.45;;;1.77;;
13079;SDS011;6606;49.154;9.280;2022-08-23T10:23:05;2.67;;;1.67;;
13079;SDS011;6606;49.154;9.280;2022-08-23T10:25:52;6.22;;;1.67;;
13079;SDS011;6606;49.154;9.280;2022-08-23T10:28:24;3.13;;;1.85;;
13079;SDS011;6606;49.154;9.280;2022-08-23T10:31:21;3.70;;;1.65;;
13079;SDS011;6606;49.154;9.280;2022-08-23T10:34:02;3.95;;;1.50;;
13079;SDS011;6606;49.154;9.280;2022-08-23T10:36:49;2.92;;;1.80;;
13079;SDS011;6606;49.154;9.280;2022-08-23T10:39:26;2.95;;;1.63;;
13079;SDS011;6606;49.154;9.280;2022-08-23T10:41:58;4.07;;;1.73;;
13079;SDS011;6606;49.154;9.280;2022-08-23T10:44:31;2.38;;;1.40;;
13079;SDS011;6606;49.154;9.280;2022-08-23T10:47:09;2.63;;;1.55;;
13079;SDS011;6606;49.154;9.280;2022-08-23T10:49:42;2.60;;;1.80;;
13079;SDS011;6606;49.154;9.280;2022-08-23T10:52:11;3.03;;;1.40;;
13079;SDS011;6606;49.154;9.280;2022-08-23T10:54:47;2.30;;;1.58;;
13079;SDS011;6606;49.154;9.280;2022-08-23T10:57:33;2.95;;;1.70;;
13079;SDS011;6606;49.154;9.280;2022-08-23T11:00:03;2.85;;;1.55;;
13079;SDS011;6606;49.154;9.280;2022-08-23T11:02:33;2.33;;;1.52;;
13079;SDS011;6606;49.154;9.280;2022-08-23T11:05:21;2.70;;;1.70;;
13079;SDS011;6606;49.154;9.280;2022-08-23T11:07:57;2.70;;;1.50;;
13079;SDS011;6606;49.154;9.280;2022-08-23T11:10:29;1.90;;;1.60;;
13079;SDS011;6606;49.154;9.280;2022-08-23T11:12:59;2.83;;;1.70;;
13079;SDS011;6606;49.154;9.280;2022-08-23T11:15:31;1.95;;;1.50;;
13079;SDS011;6606;49.154;9.280;2022-08-23T11:18:07;3.13;;;1.48;;
13079;SDS011;6606;49.154;9.280;2022-08-23T11:23:50;3.10;;;1.40;;
13079;SDS011;6606;49.154;9.280;2022-08-23T11:29:29;5.85;;;1.85;;
13079;SDS011;6606;49.154;9.280;2022-08-23T11:32:21;6.90;;;1.88;;
13079;SDS011;6606;49.154;9.280;2022-08-23T11:35:21;2.58;;;1.67;;
13079;SDS011;6606;49.154;9.280;2022-08-23T11:38:02;3.88;;;1.63;;
13079;SDS011;6606;49.154;9.280;2022-08-23T11:43:47;3.72;;;1.70;;
13079;SDS011;6606;49.154;9.280;2022-08-23T11:46:31;4.53;;;1.50;;
13079;SDS011;6606;49.154;9.280;2022-08-23T11:49:28;4.32;;;1.48;;
13079;SDS011;6606;49.154;9.280;2022-08-23T11:52:15;3.80;;;1.65;;
13079;SDS011;6606;49.154;9.280;2022-08-23T11:54:59;4.97;;;1.58;;
13079;SDS011;6606;49.154;9.280;2022-08-23T11:57:53;3.55;;;1.65;;
13079;SDS011;6606;49.154;9.280;2022-08-23T12:00:44;3.60;;;1.83;;
13079;SDS011;6606;49.154;9.280;2022-08-23T12:03:32;3.38;;;1.70;;
13079;SDS011;6606;49.154;9.280;2022-08-23T12:06:14;2.92;;;1.70;;
13079;SDS011;6606;49.154;9.280;2022-08-23T12:09:09;2.00;;;1.60;;
13079;SDS011;6606;49.154;9.280;2022-08-23T12:14:49;2.33;;;1.70;;
13079;SDS011;6606;49.154;9.280;2022-08-23T12:20:34;3.67;;;1.60;;
13079;SDS011;6606;49.154;9.280;2022-08-23T12:26:01;3.25;;;1.50;;
13079;SDS011;6606;49.154;9.280;2022-08-23T12:28:34;4.80;;;1.65;;
13079;SDS011;6606;49.154;9.280;2022-08-23T12:31:11;5.30;;;1.50;;
13079;SDS011;6606;49.154;9.280;2022-08-23T12:33:48;2.50;;;1.52;;
13079;SDS011;6606;49.154;9.280;2022-08-23T12:36:34;2.88;;;1.70;;
13079;SDS011;6606;49.154;9.280;2022-08-23T12:39:18;3.42;;;1.50;;
13079;SDS011;6606;49.154;9.280;2022-08-23T12:41:49;6.15;;;1.50;;
13079;SDS011;6606;49.154;9.280;2022-08-23T12:44:21;2.50;;;1.70;;
13079;SDS011;6606;49.154;9.280;2022-08-23T12:46:50;4.35;;;1.50;;
13079;SDS011;6606;49.154;9.280;2022-08-23T12:49:25;3.60;;;1.52;;
13079;SDS011;6606;49.154;9.280;2022-08-23T12:51:55;3.97;;;1.60;;
13079;SDS011;6606;49.154;9.280;2022-08-23T12:54:32;2.42;;;1.58;;
13079;SDS011;6606;49.154;9.280;2022-08-23T12:57:02;3.92;;;1.60;;
13079;SDS011;6606;49.154;9.280;2022-08-23T12:59:36;5.32;;;1.90;;
13079;SDS011;6606;49.154;9.280;2022-08-23T13:02:08;2.17;;;1.33;;
13079;SDS011;6606;49.154;9.280;2022-08-23T13:04:37;3.28;;;1.52;;
13079;SDS011;6606;49.154;9.280;2022-08-23T13:07:08;4.10;;;1.50;;
13079;SDS011;6606;49.154;9.280;2022-08-23T13:09:40;2.38;;;1.50;;
13079;SDS011;6606;49.154;9.280;2022-08-23T13:12:08;2.78;;;1.60;;
13079;SDS011;6606;49.154;9.280;2022-08-23T13:14:44;3.80;;;1.50;;
13079;SDS011;6606;49.154;9.280;2022-08-23T13:17:20;6.15;;;1.67;;
13079;SDS011;6606;49.154;9.280;2022-08-23T13:20:09;4.35;;;1.70;;
13079;SDS011;6606;49.154;9.280;2022-08-23T13:22:53;3.80;;;1.52;;
13079;SDS011;6606;49.154;9.280;2022-08-23T13:25:27;2.50;;;1.55;;
13079;SDS011;6606;49.154;9.280;2022-08-23T13:27:57;6.72;;;1.70;;
13079;SDS011;6606;49.154;9.280;2022-08-23T13:30:25;4.15;;;1.63;;
13079;SDS011;6606;49.154;9.280;2022-08-23T13:35:46;2.33;;;1.60;;
13079;SDS011;6606;49.154;9.280;2022-08-23T13:38:17;3.08;;;1.58;;
13079;SDS011;6606;49.154;9.280;2022-08-23T13:40:52;3.42;;;1.50;;
13079;SDS011;6606;49.154;9.280;2022-08-23T13:43:23;3.85;;;1.63;;
13079;SDS011;6606;49.154;9.280;2022-08-23T13:45:54;2.67;;;1.42;;
13079;SDS011;6606;49.154;9.280;2022-08-23T13:48:23;2.22;;;1.58;;
13079;SDS011;6606;49.154;9.280;2022-08-23T13:50:52;4.57;;;1.63;;
13079;SDS011;6606;49.154;9.280;2022-08-23T13:53:19;2.92;;;1.60;;
13079;SDS011;6606;49.154;9.280;2022-08-23T13:55:47;2.53;;;1.60;;
13079;SDS011;6606;49.154;9.280;2022-08-23T13:58:24;5.45;;;1.65;;
13079;SDS011;6606;49.154;9.280;2022-08-23T14:00:53;2.38;;;1.25;;
13079;SDS011;6606;49.154;9.280;2022-08-23T14:03:20;2.25;;;1.58;;
13079;SDS011;6606;49.154;9.280;2022-08-23T14:05:47;2.33;;;1.45;;
13079;SDS011;6606;49.154;9.280;2022-08-23T14:08:13;3.03;;;1.67;;
13079;SDS011;6606;49.154;9.280;2022-08-23T14:10:40;3.55;;;1.70;;
13079;SDS011;6606;49.154;9.280;2022-08-23T14:13:07;3.42;;;1.60;;
13079;SDS011;6606;49.154;9.280;2022-08-23T14:15:36;4.03;;;1.85;;
13079;SDS011;6606;49.154;9.280;2022-08-23T14:18:04;2.30;;;1.50;;
13079;SDS011;6606;49.154;9.280;2022-08-23T14:20:31;4.38;;;1.55;;
13079;SDS011;6606;49.154;9.280;2022-08-23T14:22:58;2.78;;;1.50;;
13079;SDS011;6606;49.154;9.280;2022-08-23T14:25:25;3.58;;;1.70;;
13079;SDS011;6606;49.154;9.280;2022-08-23T14:27:53;4.63;;;1.60;;
13079;SDS011;6606;49.154;9.280;2022-08-23T14:30:24;5.13;;;1.55;;
13079;SDS011;6606;49.154;9.280;2022-08-23T14:32:54;2.53;;;1.60;;
13079;SDS011;6606;49.154;9.280;2022-08-23T14:35:20;3.28;;;1.60;;
13079;SDS011;6606;49.154;9.280;2022-08-23T14:37:47;4.32;;;1.50;;
13079;SDS011;6606;49.154;9.280;2022-08-23T14:40:14;2.65;;;1.40;;
13079;SDS011;6606;49.154;9.280;2022-08-23T14:42:41;4.60;;;1.65;;
13079;SDS011;6606;49.154;9.280;2022-08-23T14:45:09;2.05;;;1.55;;
13079;SDS011;6606;49.154;9.280;2022-08-23T14:47:36;3.10;;;1.58;;
13079;SDS011;6606;49.154;9.280;2022-08-23T14:50:06;2.70;;;1.60;;
13079;SDS011;6606;49.154;9.280;2022-08-23T14:52:35;4.07;;;1.60;;
13079;SDS011;6606;49.154;9.280;2022-08-23T14:55:04;3.10;;;1.70;;
13079;SDS011;6606;49.154;9.280;2022-08-23T14:57:31;3.72;;;1.70;;
13079;SDS011;6606;49.154;9.280;2022-08-23T14:59:58;3.28;;;1.73;;
13079;SDS011;6606;49.154;9.280;2022-08-23T15:02:25;3.80;;;1.70;;
13079;SDS011;6606;49.154;9.280;2022-08-23T15:04:54;3.28;;;1.73;;
13079;SDS011;6606;49.154;9.280;2022-08-23T15:07:22;2.67;;;1.77;;
13079;SDS011;6606;49.154;9.280;2022-08-23T15:09:50;5.72;;;1.70;;
13079;SDS011;6606;49.154;9.280;2022-08-23T15:12:18;4.35;;;1.75;;
13079;SDS011;6606;49.154;9.280;2022-08-23T15:14:46;3.92;;;1.75;;
13079;SDS011;6606;49.154;9.280;2022-08-23T15:17:12;5.03;;;1.73;;
13079;SDS011;6606;49.154;9.280;2022-08-23T15:19:40;5.70;;;1.80;;
13079;SDS011;6606;49.154;9.280;2022-08-23T15:22:06;2.60;;;1.67;;
13079;SDS011;6606;49.154;9.280;2022-08-23T15:24:34;2.38;;;1.48;;
13079;SDS011;6606;49.154;9.280;2022-08-23T15:27:03;2.15;;;1.50;;
13079;SDS011;6606;49.154;9.280;2022-08-23T15:29:30;2.47;;;1.38;;
13079;SDS011;6606;49.154;9.280;2022-08-23T15:31:57;3.28;;;1.40;;
13079;SDS011;6606;49.154;9.280;2022-08-23T15:34:23;3.92;;;1.50;;
13079;SDS011;6606;49.154;9.280;2022-08-23T15:36:50;2.05;;;1.48;;
13079;SDS011;6606;49.154;9.280;2022-08-23T15:39:17;4.03;;;1.70;;
13079;SDS011;6606;49.154;9.280;2022-08-23T15:41:45;3.30;;;1.50;;
13079;SDS011;6606;49.154;9.280;2022-08-23T15:44:12;2.95;;;1.67;;
13079;SDS011;6606;49.154;9.280;2022-08-23T15:46:38;5.00;;;2.80;;
13079;SDS011;6606;49.154;9.280;2022-08-23T15:49:09;4.00;;;1.70;;
13079;SDS011;6606;49.154;9.280;2022-08-23T15:51:37;3.70;;;1.90;;